Rolla, ND

1:57 PM CDT on June 02, 2015 (GMT -0500)
Rolla | | Change Station
CLOSE
Current Station
Airport
Location: Rolla,
Elevation: 1824 ft
Nearby Weather Stations

Elev 1824 ft 48.88 °N, 99.62 °W | Updated 22 minutes ago

Overcast
Overcast
57 °F
Feels Like 57 °F
N
13
Wind Variable Wind from ENE
Gusts 18 mph

Today
High -- | Low -- °F
--% Chance of Precip.
Yesterday
High -- | Low -- °F
Precip. -- in
5:38 AM 9:34 PM
Full, 100% visible
Pressure 29.87 in
Visibility 10.0 miles
Clouds Overcast 600 ft
Dew Point 57 °F
Humidity 100%
Rainfall 0.00 in
Snow Depth Not available.
UV 3 out of 12
Pollen .80 out of 12
Air Quality Not available.
Flu Activity Sporadic
METAR K06D 021835Z AUTO 06011G16KT 10SM OVC006 14/14 A2987 RMK AO2

More Conditions Fewer Conditions

Pressure 29.87 in
Visibility 10.0 miles
Clouds Overcast 600 ft
Dew Point 57 °F
Humidity 100%
Rainfall 0.00 in
Snow Depth Not available.
UV 3 out of 12
Pollen .80 out of 12
Air Quality Not available.
Flu Activity Sporadic
METAR K06D 021835Z AUTO 06011G16KT 10SM OVC006 14/14 A2987 RMK AO2

More Conditions Fewer Conditions

10-Day Weather Forecast

×

Almanac

Astronomy

Jun. 02, 2015 Rise Set
Actual Time
Civil Twilight
Nautical Twilight
Astronomical Twilight
Moon
Length of Visible Light
Length of Day
Tomorrow will be .
, % of the Moon is Illuminated

Today's Extremes

State Highs State Lows

Community

WunderPhotos

Upload Photos

1,825,997 photos uploaded!

WunderBlogs® & News

Nearby

Air Quality

  Air Quality AQ Index Pollutant
Not available.

Snow Depth

Station Depth Elevation

Earthquake Activity

City Distance Mag. Time & Date
Minimum magnitude displayed is 2.5.

Coastal Water Temperatures

Place Temperature

Stations

Nearby Weather Stations

Station Location Temp. Windchill Dew Point Humidity Wind Precip. Elev Updated Type